Date,TemperatureHighF,TemperatureAvgF,TemperatureLowF,DewpointHighF,DewpointAvgF,DewpointLowF,HumidityHigh,HumidityAvg,HumidityLow,PressureMaxIn,PressureMinIn,WindSpeedMaxMPH,WindSpeedAvgMPH,GustSpeedMaxMPH,PrecipitationSumIn
2012-4-11,58,48,37,32,28,22,54,45,38,0.00,40.00,11,6,16,0.00
2012-4-12,64,46,26,36,28,20,79,53,33,0.00,40.00,13,6,21,0.00
2012-4-13,58,51,44,48,41,26,86,68,46,0.00,40.00,30,17,37,0.00
2012-4-14,69,59,51,62,55,-100,97,89,78,0.00,40.00,25,12,31,0.00
2012-4-15,75,68,61,63,60,56,94,75,66,0.00,40.00,35,24,49,0.00
2012-4-16,62,56,49,57,44,39,88,66,45,0.00,40.00,39,24,49,0.00
2012-4-17,67,56,42,44,40,37,95,60,35,0.00,40.00,11,5,14,0.00
2012-4-18,74,68,58,49,47,45,70,48,38,0.00,40.00,26,18,39,0.00
2012-4-19,79,65,54,52,48,45,81,56,36,0.00,40.00,27,18,36,0.00
2012-4-20,64,51,45,54,43,36,96,74,54,0.00,40.00,26,17,31,0.00
2012-4-21,59,48,34,36,32,-100,91,59,33,0.00,40.00,17,8,29,0.00
2012-4-22,59,49,40,38,30,22,63,48,34,0.00,40.00,24,14,36,0.00
2012-4-23,63,49,34,38,31,22,77,52,36,0.00,40.00,25,12,37,0.00
2012-4-24,70,56,41,49,42,32,80,60,42,0.00,40.00,21,9,29,0.00
2012-4-25,83,63,47,64,53,44,91,73,43,0.00,40.00,24,12,35,0.00
2012-4-26,72,61,44,61,48,28,95,64,40,0.00,40.00,24,15,33,0.00
2012-4-27,61,49,33,30,25,22,67,42,23,0.00,40.00,30,17,36,0.00
2012-4-28,58,50,46,52,43,-100,90,81,36,0.00,40.00,28,19,34,0.00
2012-4-29,55,50,45,53,48,41,97,92,85,0.00,40.00,24,14,29,0.00
2012-4-30,63,59,53,61,57,52,98,93,84,0.00,40.00,37,10,52,0.00
2012-5-1,71,60,51,65,57,50,97,90,72,0.00,40.00,26,11,32,0.00
2012-5-2,82,69,60,67,63,59,96,81,60,0.00,40.00,21,12,29,0.00
2012-5-3,84,76,67,70,67,64,92,75,59,0.00,40.00,37,18,44,0.00
2012-5-4,83,70,62,66,63,60,95,79,50,0.00,40.00,22,9,37,0.00
2012-5-5,87,69,56,68,61,-100,97,79,46,0.00,40.00,18,12,24,0.00
2012-5-6,92,76,62,71,65,60,96,72,43,0.00,40.00,23,12,26,0.00
2012-5-7,75,67,57,67,63,55,95,85,66,0.00,40.00,19,10,33,0.00
2012-5-8,74,66,54,55,44,40,94,47,34,0.00,40.00,24,14,39,0.00
2012-5-9,69,57,47,49,46,43,89,68,42,0.00,40.00,19,10,25,0.00
2012-5-10,74,60,44,49,42,37,96,58,30,0.00,40.00,14,5,26,0.00
2012-5-11,79,64,45,48,45,41,87,53,33,0.00,40.00,22,11,30,0.00
2012-5-12,76,68,55,60,54,-100,83,64,50,0.00,40.00,17,10,21,0.00
2012-5-13,76,62,48,49,44,34,82,55,36,0.00,40.00,18,11,29,0.00
2012-5-14,81,67,47,46,41,34,67,41,28,0.00,40.00,14,5,21,0.00
2012-5-15,86,71,53,55,49,38,70,46,33,0.00,40.00,21,12,32,0.00
2012-5-16,74,65,52,55,47,33,76,53,38,0.00,40.00,23,14,32,0.00
2012-5-17,81,63,42,47,40,32,74,47,28,0.00,40.00,16,10,21,0.00
2012-5-18,88,72,52,57,50,40,70,48,33,0.00,40.00,19,11,24,0.00
2012-5-19,92,79,67,66,59,-100,79,54,37,0.00,40.00,21,14,29,0.00
2012-5-20,90,76,61,68,63,60,97,68,44,0.00,40.00,24,14,37,0.00
2012-5-21,71,61,53,61,50,47,95,68,45,0.00,40.00,17,11,25,0.00
2012-5-22,78,64,49,52,48,45,95,61,34,0.00,40.00,9,4,14,0.00
2012-5-23,82,68,51,52,49,46,88,55,32,0.00,40.00,21,12,31,0.00
2012-5-24,90,77,62,66,58,48,70,52,42,0.00,40.00,39,23,49,0.00
2012-5-25,89,78,67,65,59,56,81,54,36,0.00,40.00,19,9,24,0.00
2012-5-26,91,80,66,73,65,52,74,61,53,0.00,40.00,18,11,28,0.00
2012-5-27,93,84,71,71,67,61,79,58,42,0.00,40.00,24,14,28,0.00
2012-5-28,92,82,71,70,67,65,82,61,47,0.00,40.00,26,17,39,0.00
2012-5-29,87,75,63,66,57,51,82,55,33,0.00,40.00,24,9,30,0.00
2012-5-30,76,66,54,53,50,46,79,58,42,0.00,40.00,20,10,32,0.00
2012-5-31,57,53,48,51,48,46,98,86,69,0.00,40.00,24,17,33,0.00
2012-6-1,69,56,48,49,46,42,91,70,40,0.00,40.00,20,13,29,0.00
2012-6-2,71,60,50,58,51,-100,91,75,56,0.00,40.00,16,9,24,0.00
2012-6-3,83,69,53,62,56,52,95,68,36,0.00,40.00,16,8,22,0.00
2012-6-4,73,65,59,63,60,51,95,84,63,0.00,40.00,19,8,25,0.00
2012-6-5,80,66,52,56,52,48,90,63,42,0.00,40.00,16,8,21,0.00
2012-6-6,79,65,50,54,50,48,96,63,37,0.00,40.00,13,6,19,0.00
2012-6-7,84,70,51,53,50,46,92,54,32,0.00,40.00,11,3,18,0.00
2012-6-8,86,73,56,58,54,47,86,53,36,0.00,40.00,14,5,20,0.00
2012-6-9,89,77,62,61,57,-100,74,54,39,0.00,40.00,18,12,26,0.00
2012-6-10,89,79,69,66,63,60,74,60,46,0.00,40.00,27,16,37,0.00
2012-6-11,83,75,67,71,66,62,93,76,56,0.00,40.00,30,12,36,0.00
2012-6-12,80,70,56,65,52,44,93,56,30,0.00,40.00,20,11,29,0.00
2012-6-13,80,65,49,52,50,47,94,62,36,0.00,40.00,14,8,24,0.00
2012-6-14,87,71,52,61,57,49,90,64,42,0.00,40.00,19,10,28,0.00
2012-6-15,91,78,59,65,60,55,88,57,41,0.00,40.00,20,12,27,0.00
2012-6-16,92,80,68,74,66,-100,97,65,50,0.00,40.00,20,13,28,0.00
2012-6-17,87,76,68,69,66,60,97,74,41,0.00,40.00,14,9,22,0.00
2012-6-18,90,81,73,71,69,64,90,68,49,0.00,40.00,31,18,44,0.00
2012-6-19,91,82,72,73,68,63,84,65,50,0.00,40.00,26,16,34,0.00
2012-6-20,91,83,71,71,67,62,74,59,49,0.00,40.00,24,16,30,0.00
2012-6-21,84,76,66,70,65,60,91,69,49,0.00,40.00,18,10,24,0.00
2012-6-22,85,73,59,61,58,56,92,63,39,0.00,40.00,13,5,20,0.00
2012-6-23,85,73,57,66,60,55,94,66,38,0.00,40.00,11,4,21,0.00
2012-6-24,84,73,64,71,66,60,93,80,57,0.00,40.00,19,5,32,0.00
2012-6-25,82,74,56,71,56,46,92,58,36,0.00,40.00,21,12,30,0.00
2012-6-26,84,68,50,60,53,47,96,65,37,0.00,40.00,15,8,21,0.00
2012-6-27,91,75,57,62,57,50,90,56,37,0.00,40.00,22,14,29,0.00
2012-6-28,101,85,69,79,70,56,91,61,47,0.00,40.00,16,10,26,0.00
2012-6-29,98,87,79,81,76,67,95,72,46,0.00,40.00,20,7,39,0.00
2012-6-30,93,80,70,79,71,65,96,77,49,0.00,40.00,14,7,23,0.00
2012-7-1,92,81,71,75,71,67,96,75,48,0.00,40.00,11,5,16,0.00
2012-7-2,99,84,68,78,71,66,96,67,38,0.00,40.00,26,6,41,0.00
2012-7-3,97,83,69,76,70,64,90,68,45,0.00,40.00,13,8,20,0.00
2012-7-4,101,87,75,75,73,69,92,65,39,0.00,40.00,12,8,17,0.00
2012-7-5,103,88,70,73,70,68,91,59,37,0.00,40.00,12,6,18,0.00
2012-7-6,105,89,74,79,73,68,89,62,37,0.00,40.00,9,4,14,0.00
2012-7-7,106,90,74,77,74,70,94,62,35,0.00,40.00,16,5,20,0.00
2012-7-8,87,78,66,75,67,58,88,71,46,0.00,40.00,18,11,26,0.00
2012-7-9,93,77,62,67,62,57,91,64,38,0.00,40.00,10,5,17,0.00
2012-7-10,90,77,64,66,62,55,94,63,43,0.00,40.00,17,9,24,0.00
2012-7-11,92,78,67,66,61,56,88,59,38,0.00,40.00,12,7,16,0.00
2012-7-12,96,79,64,72,64,56,85,63,36,0.00,40.00,6,4,10,0.00
2012-7-13,94,79,66,72,68,64,95,73,46,0.00,40.00,11,6,19,0.00
2012-7-14,92,77,68,70,69,66,96,77,47,0.00,40.00,14,6,17,0.00
2012-7-15,98,82,66,73,69,64,96,69,37,0.00,40.00,11,5,17,0.00
2012-7-16,95,84,73,75,72,69,89,68,48,0.00,40.00,14,9,20,0.00
2012-7-17,100,87,75,77,73,71,88,64,41,0.00,40.00,14,8,20,0.00
2012-7-18,102,87,74,76,73,71,92,65,38,0.00,40.00,14,7,18,0.00
2012-7-19,95,85,75,77,73,68,86,68,55,0.00,40.00,22,14,37,0.00
2012-7-20,85,74,65,70,66,-100,95,78,56,0.00,40.00,17,3,24,0.00
2012-7-21,92,76,57,70,63,57,97,70,39,0.00,40.00,6,3,13,0.00
2012-7-22,94,82,68,70,67,65,89,63,42,0.00,40.00,18,7,23,0.00
2012-7-23,102,87,74,77,71,65,72,60,42,0.00,40.00,16,11,22,0.00
2012-7-24,94,86,77,77,73,70,82,67,54,0.00,40.00,15,8,20,0.00
2012-7-25,100,87,72,74,71,67,95,64,38,0.00,40.00,22,10,32,0.00
2012-7-26,89,79,69,74,70,66,96,78,55,0.00,40.00,16,9,48,0.00
2012-7-27,87,77,67,70,64,58,96,68,42,0.00,40.00,21,10,29,0.00
2012-7-28,86,74,62,69,64,61,95,74,47,0.00,40.00,11,5,15,0.00
2012-7-29,90,74,61,68,64,60,96,75,47,0.00,40.00,15,6,23,0.00
2012-7-30,93,79,64,72,67,63,95,71,46,0.00,40.00,9,4,14,0.00
2012-7-31,98,82,69,74,69,64,95,69,38,0.00,40.00,16,8,21,0.00
2012-8-1,95,79,62,68,63,60,96,62,33,0.00,40.00,9,5,14,0.00
2012-8-2,96,76,59,72,64,57,95,71,40,0.00,40.00,13,7,26,0.00
2012-8-3,95,79,65,72,68,63,97,74,42,0.00,40.00,11,6,16,0.00
2012-8-4,94,79,68,77,71,66,95,78,50,0.00,40.00,21,8,32,0.00
2012-8-5,87,77,63,72,63,56,97,65,39,0.00,40.00,19,8,25,0.00
2012-8-6,92,74,59,64,58,55,91,62,30,0.00,40.00,8,3,13,0.00
2012-8-7,100,79,56,66,60,54,95,58,29,0.00,40.00,10,5,15,0.00
2012-8-8,88,75,67,74,68,63,95,79,52,0.00,40.00,11,4,17,0.00
2012-8-9,91,74,64,68,65,61,97,77,44,0.00,40.00,18,8,27,0.00
2012-8-10,80,69,60,62,56,49,97,68,40,0.00,40.00,20,12,29,0.00
2012-8-11,83,66,51,54,49,-100,95,59,32,0.00,40.00,14,6,21,0.00
2012-8-12,79,65,50,63,55,48,94,72,45,0.00,40.00,9,4,11,0.00
2012-8-13,75,67,62,63,62,60,96,84,65,0.00,40.00,16,8,21,0.00
2012-8-14,87,70,55,63,59,55,98,73,39,0.00,40.00,10,4,14,0.00
2012-8-15,89,73,61,62,59,55,92,65,36,0.00,40.00,16,8,26,0.00
2012-8-16,74,69,62,69,64,57,97,86,55,0.00,40.00,33,9,41,0.00
2012-8-17,78,65,54,58,52,49,94,66,39,0.00,40.00,13,7,20,0.00
2012-8-18,82,67,51,58,52,49,94,64,34,0.00,40.00,8,3,11,0.00
2012-8-19,81,68,58,59,54,50,92,66,36,0.00,40.00,13,5,26,0.00
2012-8-20,83,68,53,57,54,51,96,66,38,0.00,40.00,11,5,18,0.00
2012-8-21,84,67,51,59,53,49,97,67,31,0.00,40.00,8,4,13,0.00
2012-8-22,92,69,49,62,54,48,97,66,28,0.00,40.00,11,5,14,0.00
2012-8-23,95,76,58,63,59,54,89,58,32,0.00,40.00,14,9,19,0.00
2012-8-24,98,79,61,69,62,59,94,60,34,0.00,40.00,12,5,15,0.00
2012-8-25,91,78,60,67,61,58,95,60,36,0.00,40.00,25,11,44,0.00
2012-8-26,83,74,70,75,70,67,96,87,65,0.00,40.00,16,8,21,0.00
2012-8-27,88,77,69,71,65,55,96,71,37,0.00,40.00,19,9,26,0.00
2012-8-28,90,76,62,65,62,59,92,66,38,0.00,40.00,11,4,17,0.00
2012-8-29,90,74,60,67,63,59,96,72,41,0.00,40.00,10,5,15,0.00
2012-8-30,95,77,61,65,61,58,95,63,33,0.00,40.00,11,7,16,0.00
2012-8-31,85,76,65,75,69,59,96,80,58,0.00,40.00,13,7,18,0.00
2012-9-1,83,76,72,76,73,71,97,91,73,0.00,40.00,22,11,33,0.00
2012-9-2,83,76,72,74,72,70,96,88,69,0.00,40.00,24,10,37,0.00
2012-9-3,92,79,70,72,70,69,96,77,50,0.00,40.00,13,7,19,0.00
2012-9-4,94,81,70,75,71,68,96,75,46,0.00,40.00,10,3,17,0.00
2012-9-5,85,72,64,69,65,59,94,78,58,0.00,40.00,27,12,44,0.00
2012-9-11,85,75,58,59,57,53,83,55,40,0.00,40.00,21,14,29,0.00
2012-9-12,87,72,60,61,58,56,90,65,38,0.00,40.00,18,12,26,0.00
2012-9-13,81,66,55,64,58,51,98,78,51,0.00,40.00,23,12,29,0.00
2012-9-14,74,61,51,54,49,43,98,70,35,0.00,40.00,11,6,19,0.00
2012-9-15,79,62,45,54,47,44,96,63,32,0.00,40.00,12,4,14,0.00
2012-9-16,80,63,44,60,51,43,97,69,39,0.00,40.00,11,6,21,0.00
2012-9-17,78,64,54,64,59,52,98,84,51,0.00,40.00,22,6,34,0.00
2012-9-18,65,55,47,53,41,34,96,64,35,0.00,40.00,21,11,32,0.00
2012-9-19,74,58,43,49,42,35,82,58,34,0.00,40.00,29,16,37,0.00
2012-9-20,75,63,51,54,45,37,93,56,30,0.00,40.00,17,9,26,0.00
2012-9-21,76,58,49,59,46,38,96,66,33,0.00,40.00,16,10,26,0.00
2012-9-22,63,51,44,48,38,-100,99,68,36,0.00,40.00,24,12,37,0.00
2012-9-23,66,51,35,42,35,29,97,61,28,0.00,40.00,19,7,29,0.00
2012-9-24,73,55,34,43,37,29,87,53,30,0.00,40.00,21,11,28,0.00
2012-9-25,74,64,56,64,57,43,97,80,54,0.00,40.00,16,8,20,0.00
2012-9-26,76,67,58,64,62,51,97,86,66,0.00,40.00,16,6,21,0.00
2012-9-27,72,62,55,52,46,42,83,58,35,0.00,40.00,16,9,21,0.00
2012-9-28,69,56,47,48,46,42,96,73,44,0.00,40.00,16,6,24,0.00
2012-9-29,79,60,44,48,45,41,98,66,31,0.00,40.00,12,6,16,0.00
2012-9-30,74,60,46,51,45,41,95,61,35,0.00,40.00,18,8,28,0.00
2012-10-1,67,56,46,48,44,42,93,66,42,0.00,40.00,19,8,23,0.00
2012-10-2,74,60,46,53,48,44,92,69,38,0.00,40.00,18,9,27,0.00
2012-10-3,71,62,56,56,51,44,96,69,46,0.00,40.00,14,6,21,0.00
2012-10-4,79,61,49,58,52,45,97,75,47,0.00,40.00,25,14,36,0.00
2012-10-5,49,45,36,47,40,34,95,84,72,0.00,40.00,21,9,26,0.00
2012-10-6,50,40,31,34,31,29,96,71,48,0.00,40.00,21,11,28,0.00
2012-10-7,53,43,35,35,30,25,90,61,38,0.00,40.00,16,9,22,0.00
2012-10-8,60,46,35,37,33,27,81,61,38,0.00,40.00,24,14,33,0.00
2012-10-9,67,52,41,45,41,35,96,69,42,0.00,40.00,24,17,33,0.00
2012-10-10,56,45,33,43,33,27,98,68,37,0.00,40.00,25,12,30,0.00
2012-10-11,67,52,36,45,37,31,82,60,37,0.00,40.00,24,14,31,0.00
2012-10-12,62,50,41,45,37,33,83,63,39,0.00,40.00,21,13,29,0.00
2012-10-13,68,59,46,64,55,39,97,87,70,0.00,40.00,29,16,39,0.00
2012-10-14,71,61,48,65,57,45,97,88,66,0.00,40.00,41,23,52,0.00
2012-10-15,65,52,41,47,42,38,98,72,41,0.00,40.00,18,8,23,0.00
2012-10-16,73,58,40,54,48,38,95,70,48,0.00,40.00,30,16,40,0.00
2012-10-17,63,59,52,60,54,49,97,84,68,0.00,40.00,26,18,39,0.00
2012-10-18,55,48,43,49,38,32,92,70,43,0.00,40.00,29,19,39,0.00
2012-10-19,52,48,45,47,44,42,97,89,70,0.00,40.00,21,16,28,0.00
2012-10-20,56,48,39,46,42,38,97,83,56,0.00,40.00,16,8,21,0.00
2012-10-21,70,53,39,58,47,38,97,80,52,0.00,40.00,18,11,22,0.00
2012-10-22,69,64,59,65,60,56,97,87,77,0.00,40.00,25,16,33,0.00
2012-10-23,72,66,62,64,62,60,96,86,71,0.00,40.00,24,14,30,0.00
2012-10-24,80,69,62,66,62,58,90,79,62,0.00,40.00,24,17,30,0.00
2012-10-25,77,62,44,63,56,38,99,83,62,0.00,40.00,33,23,44,0.00
2012-10-26,49,42,36,38,31,30,81,66,50,0.00,40.00,27,14,39,0.00
2012-10-27,48,39,32,31,29,27,86,68,49,0.00,40.00,17,11,24,0.00
2012-10-28,51,40,33,36,31,28,84,70,48,0.00,40.00,16,9,21,0.00
2012-10-29,35,34,32,31,30,29,90,86,80,0.00,40.00,11,9,14,0.00
2012-10-30,52,46,40,27,26,24,58,46,37,0.00,40.00,25,-7,36,0.00
2012-10-31,51,39,30,34,27,23,86,65,38,0.00,40.00,23,13,29,0.00
2012-11-1,61,44,28,41,32,23,83,64,41,0.00,40.00,18,10,22,0.00
2012-11-2,53,42,33,34,31,27,89,67,43,0.00,40.00,13,8,17,0.00
2012-11-3,45,39,32,38,35,29,95,87,72,0.00,40.00,16,11,23,0.00
2012-11-4,49,37,27,39,32,26,100,85,57,0.00,40.00,7,3,10,0.00
2012-11-5,45,39,32,35,32,30,96,77,57,0.00,40.00,19,8,24,0.00
2012-11-6,43,39,36,43,36,31,99,89,80,0.00,40.00,13,8,16,0.00
2012-11-7,44,43,41,41,39,38,90,87,83,0.00,40.00,10,5,14,0.00
2012-11-8,52,44,39,39,38,36,95,79,58,0.00,40.00,14,7,18,0.00
2012-11-9,63,56,42,53,47,39,89,75,58,0.00,40.00,15,11,20,0.00
2012-11-10,57,56,54,53,52,50,92,88,82,0.00,40.00,19,15,25,0.00
2012-11-28,47,39,33,28,27,24,80,63,46,0.00,40.00,14,9,17,0.00
2012-11-29,54,41,31,38,32,27,85,72,54,0.00,40.00,21,15,26,0.00
2012-11-30,60,45,33,40,35,30,94,70,48,0.00,40.00,20,11,24,0.00
2012-12-1,62,52,33,52,46,31,98,83,68,0.00,40.00,26,16,32,0.00
2012-12-2,65,57,42,57,52,42,99,85,74,0.00,40.00,24,11,29,0.00
2012-12-3,70,62,51,61,57,51,99,85,65,0.00,40.00,36,22,43,0.00
2012-12-4,59,50,39,52,40,31,93,70,44,0.00,40.00,21,9,26,0.00
2012-12-5,45,37,29,34,30,24,96,78,63,0.00,40.00,15,10,20,0.00
2012-12-6,49,40,32,42,35,-100,95,84,67,0.00,40.00,16,10,20,0.00
2012-12-7,46,44,43,45,44,42,98,96,90,0.00,40.00,14,7,17,0.00
2012-12-8,44,40,38,44,39,36,98,94,82,0.00,40.00,14,9,18,0.00
2012-12-9,45,41,36,44,39,29,97,93,81,0.00,40.00,24,14,29,0.00
2012-12-10,36,29,26,32,24,21,87,82,79,0.00,40.00,25,15,32,0.00
2012-12-11,33,25,19,26,21,16,90,85,72,0.00,40.00,13,10,16,0.00
2012-12-12,46,34,26,29,25,21,83,70,47,0.00,40.00,19,14,24,0.00
2012-12-13,48,37,30,32,28,25,82,71,48,0.00,40.00,26,18,32,0.00
2012-12-14,51,41,30,38,32,26,84,71,55,0.00,40.00,17,11,21,0.00
2012-12-15,52,47,41,49,44,35,97,89,74,0.00,40.00,27,18,36,0.00
2012-12-16,49,43,38,46,39,34,92,88,82,0.00,40.00,19,11,25,0.00
2012-12-17,39,37,35,35,34,32,91,87,81,0.00,40.00,10,6,14,0.00
2012-12-18,51,39,32,40,34,31,96,84,65,0.00,40.00,32,10,40,0.00
2012-12-19,43,37,35,40,34,31,97,88,80,0.00,40.00,27,12,34,0.00
2012-12-20,51,41,24,50,39,20,97,94,86,0.00,40.00,47,27,58,0.00
2012-12-21,28,21,14,21,15,10,88,76,60,0.00,40.00,34,22,44,0.00
2012-12-22,33,22,10,26,17,8,91,81,64,0.00,40.00,17,8,22,0.00
2012-12-23,35,27,18,29,24,16,95,87,73,0.00,40.00,13,7,16,0.00
2012-12-24,31,27,23,28,25,20,94,90,85,0.00,40.00,23,12,28,0.00
2012-12-25,28,26,24,25,22,18,90,84,78,0.00,40.00,21,13,29,0.00
2012-12-26,32,29,27,26,24,22,87,81,72,0.00,40.00,27,18,39,0.00
2012-12-27,31,28,24,24,22,21,87,80,71,0.00,40.00,13,6,19,0.00
2012-12-28,33,30,28,29,27,23,93,87,80,0.00,40.00,13,7,16,0.00
2012-12-29,31,24,13,29,20,10,93,83,72,0.00,40.00,26,16,32,0.00
2012-12-30,39,26,14,28,21,11,90,81,61,0.00,40.00,21,12,26,0.00
2012-12-31,36,30,21,32,26,17,98,85,67,0.00,40.00,21,14,29,0.00
2013-1-1,24,17,7,17,10,2,84,74,55,0.00,40.00,14,8,16,0.00